sensor_id;sensor_type;location;lat;lon;timestamp;P1;durP1;ratioP1;P2;durP2;ratioP2
36001;SDS011;22070;50.922;5.430;2023-04-03T00:00:49;9.23;;;4.53;;
36001;SDS011;22070;50.922;5.430;2023-04-03T00:03:15;7.60;;;5.07;;
36001;SDS011;22070;50.922;5.430;2023-04-03T00:05:41;8.57;;;4.85;;
36001;SDS011;22070;50.922;5.430;2023-04-03T00:08:07;9.93;;;5.10;;
36001;SDS011;22070;50.922;5.430;2023-04-03T00:10:34;7.85;;;4.82;;
36001;SDS011;22070;50.922;5.430;2023-04-03T00:13:01;7.35;;;4.97;;
36001;SDS011;22070;50.922;5.430;2023-04-03T00:15:31;13.55;;;5.50;;
36001;SDS011;22070;50.922;5.430;2023-04-03T00:17:57;8.52;;;5.00;;
36001;SDS011;22070;50.922;5.430;2023-04-03T00:20:23;7.05;;;5.05;;
36001;SDS011;22070;50.922;5.430;2023-04-03T00:22:48;10.30;;;5.60;;
36001;SDS011;22070;50.922;5.430;2023-04-03T00:25:14;8.65;;;5.03;;
36001;SDS011;22070;50.922;5.430;2023-04-03T00:27:40;7.75;;;4.57;;
36001;SDS011;22070;50.922;5.430;2023-04-03T00:30:06;9.52;;;5.47;;
36001;SDS011;22070;50.922;5.430;2023-04-03T00:32:34;7.57;;;4.75;;
36001;SDS011;22070;50.922;5.430;2023-04-03T00:34:59;10.18;;;4.80;;
36001;SDS011;22070;50.922;5.430;2023-04-03T00:37:25;8.67;;;5.43;;
36001;SDS011;22070;50.922;5.430;2023-04-03T00:39:51;11.57;;;5.47;;
36001;SDS011;22070;50.922;5.430;2023-04-03T00:42:16;13.02;;;5.45;;
36001;SDS011;22070;50.922;5.430;2023-04-03T00:47:11;9.57;;;5.18;;
36001;SDS011;22070;50.922;5.430;2023-04-03T00:49:39;9.50;;;5.22;;
36001;SDS011;22070;50.922;5.430;2023-04-03T00:52:05;9.35;;;5.30;;
36001;SDS011;22070;50.922;5.430;2023-04-03T00:54:34;8.70;;;5.45;;
36001;SDS011;22070;50.922;5.430;2023-04-03T00:57:02;9.70;;;5.97;;
36001;SDS011;22070;50.922;5.430;2023-04-03T00:59:33;12.77;;;5.60;;
36001;SDS011;22070;50.922;5.430;2023-04-03T01:02:04;11.13;;;5.53;;
36001;SDS011;22070;50.922;5.430;2023-04-03T01:06:57;9.25;;;5.22;;
36001;SDS011;22070;50.922;5.430;2023-04-03T01:09:29;8.82;;;5.53;;
36001;SDS011;22070;50.922;5.430;2023-04-03T01:12:12;8.43;;;5.70;;
36001;SDS011;22070;50.922;5.430;2023-04-03T01:14:42;7.90;;;5.10;;
36001;SDS011;22070;50.922;5.430;2023-04-03T01:17:24;5.95;;;5.13;;
36001;SDS011;22070;50.922;5.430;2023-04-03T01:20:14;8.20;;;5.20;;
36001;SDS011;22070;50.922;5.430;2023-04-03T01:25:37;7.15;;;5.13;;
36001;SDS011;22070;50.922;5.430;2023-04-03T01:28:05;8.60;;;5.03;;
36001;SDS011;22070;50.922;5.430;2023-04-03T01:30:34;7.55;;;5.20;;
36001;SDS011;22070;50.922;5.430;2023-04-03T01:33:15;13.00;;;5.28;;
36001;SDS011;22070;50.922;5.430;2023-04-03T01:35:41;9.68;;;5.13;;
36001;SDS011;22070;50.922;5.430;2023-04-03T01:38:06;10.40;;;5.30;;
36001;SDS011;22070;50.922;5.430;2023-04-03T01:40:32;8.70;;;5.00;;
36001;SDS011;22070;50.922;5.430;2023-04-03T01:42:58;8.43;;;5.55;;
36001;SDS011;22070;50.922;5.430;2023-04-03T01:45:23;9.27;;;5.37;;
36001;SDS011;22070;50.922;5.430;2023-04-03T01:47:49;7.70;;;5.23;;
36001;SDS011;22070;50.922;5.430;2023-04-03T01:50:15;11.10;;;5.40;;
36001;SDS011;22070;50.922;5.430;2023-04-03T01:52:40;4.32;;;3.70;;
36001;SDS011;22070;50.922;5.430;2023-04-03T01:55:06;13.18;;;5.95;;
36001;SDS011;22070;50.922;5.430;2023-04-03T01:57:32;7.80;;;5.07;;
36001;SDS011;22070;50.922;5.430;2023-04-03T01:59:58;8.88;;;5.38;;
36001;SDS011;22070;50.922;5.430;2023-04-03T02:02:23;9.83;;;5.73;;
36001;SDS011;22070;50.922;5.430;2023-04-03T02:04:49;10.75;;;5.60;;
36001;SDS011;22070;50.922;5.430;2023-04-03T02:07:15;6.93;;;5.63;;
36001;SDS011;22070;50.922;5.430;2023-04-03T02:09:40;8.57;;;5.20;;
36001;SDS011;22070;50.922;5.430;2023-04-03T02:12:06;7.57;;;4.80;;
36001;SDS011;22070;50.922;5.430;2023-04-03T02:14:32;7.37;;;5.07;;
36001;SDS011;22070;50.922;5.430;2023-04-03T02:16:57;12.93;;;5.97;;
36001;SDS011;22070;50.922;5.430;2023-04-03T02:19:25;11.77;;;5.93;;
36001;SDS011;22070;50.922;5.430;2023-04-03T02:21:52;12.40;;;5.68;;
36001;SDS011;22070;50.922;5.430;2023-04-03T02:24:18;13.33;;;6.20;;
36001;SDS011;22070;50.922;5.430;2023-04-03T02:26:43;12.15;;;5.85;;
36001;SDS011;22070;50.922;5.430;2023-04-03T02:29:09;8.30;;;5.97;;
36001;SDS011;22070;50.922;5.430;2023-04-03T02:31:35;7.88;;;5.75;;
36001;SDS011;22070;50.922;5.430;2023-04-03T02:34:00;9.00;;;5.60;;
36001;SDS011;22070;50.922;5.430;2023-04-03T02:36:26;9.07;;;6.30;;
36001;SDS011;22070;50.922;5.430;2023-04-03T02:38:52;11.20;;;6.23;;
36001;SDS011;22070;50.922;5.430;2023-04-03T02:41:17;7.73;;;5.60;;
36001;SDS011;22070;50.922;5.430;2023-04-03T02:43:43;13.13;;;6.63;;
36001;SDS011;22070;50.922;5.430;2023-04-03T02:46:09;12.60;;;6.47;;
36001;SDS011;22070;50.922;5.430;2023-04-03T02:48:34;12.40;;;6.03;;
36001;SDS011;22070;50.922;5.430;2023-04-03T02:51:01;12.38;;;6.15;;
36001;SDS011;22070;50.922;5.430;2023-04-03T02:53:26;8.13;;;6.13;;
36001;SDS011;22070;50.922;5.430;2023-04-03T02:55:52;14.02;;;6.28;;
36001;SDS011;22070;50.922;5.430;2023-04-03T02:58:17;9.73;;;6.30;;
36001;SDS011;22070;50.922;5.430;2023-04-03T03:00:43;8.48;;;5.85;;
36001;SDS011;22070;50.922;5.430;2023-04-03T03:03:09;11.50;;;5.88;;
36001;SDS011;22070;50.922;5.430;2023-04-03T03:05:35;8.97;;;6.33;;
36001;SDS011;22070;50.922;5.430;2023-04-03T03:08:01;7.55;;;5.32;;
36001;SDS011;22070;50.922;5.430;2023-04-03T03:10:26;8.03;;;5.83;;
36001;SDS011;22070;50.922;5.430;2023-04-03T03:12:52;10.80;;;5.95;;
36001;SDS011;22070;50.922;5.430;2023-04-03T03:15:18;8.50;;;5.87;;
36001;SDS011;22070;50.922;5.430;2023-04-03T03:17:44;9.85;;;6.20;;
36001;SDS011;22070;50.922;5.430;2023-04-03T03:20:10;10.07;;;6.10;;
36001;SDS011;22070;50.922;5.430;2023-04-03T03:22:37;9.45;;;6.60;;
36001;SDS011;22070;50.922;5.430;2023-04-03T03:25:03;10.48;;;6.22;;
36001;SDS011;22070;50.922;5.430;2023-04-03T03:27:29;9.73;;;6.70;;
36001;SDS011;22070;50.922;5.430;2023-04-03T03:29:55;14.23;;;7.13;;
36001;SDS011;22070;50.922;5.430;2023-04-03T03:32:21;11.20;;;6.38;;
36001;SDS011;22070;50.922;5.430;2023-04-03T03:34:46;12.47;;;6.70;;
36001;SDS011;22070;50.922;5.430;2023-04-03T03:37:12;10.60;;;6.43;;
36001;SDS011;22070;50.922;5.430;2023-04-03T03:39:38;9.70;;;6.63;;
36001;SDS011;22070;50.922;5.430;2023-04-03T03:42:03;9.27;;;6.27;;
36001;SDS011;22070;50.922;5.430;2023-04-03T03:44:29;14.87;;;7.20;;
36001;SDS011;22070;50.922;5.430;2023-04-03T03:46:55;12.87;;;7.13;;
36001;SDS011;22070;50.922;5.430;2023-04-03T03:49:21;8.20;;;6.30;;
36001;SDS011;22070;50.922;5.430;2023-04-03T03:51:47;9.60;;;6.47;;
36001;SDS011;22070;50.922;5.430;2023-04-03T03:54:13;10.93;;;6.93;;
36001;SDS011;22070;50.922;5.430;2023-04-03T03:56:39;13.15;;;7.40;;
36001;SDS011;22070;50.922;5.430;2023-04-03T03:59:05;10.83;;;7.00;;
36001;SDS011;22070;50.922;5.430;2023-04-03T04:01:31;11.00;;;7.15;;
36001;SDS011;22070;50.922;5.430;2023-04-03T04:03:57;12.23;;;7.18;;
36001;SDS011;22070;50.922;5.430;2023-04-03T04:06:22;14.00;;;7.97;;
36001;SDS011;22070;50.922;5.430;2023-04-03T04:08:48;15.65;;;7.80;;
36001;SDS011;22070;50.922;5.430;2023-04-03T04:11:14;11.45;;;7.40;;
36001;SDS011;22070;50.922;5.430;2023-04-03T04:13:40;10.97;;;7.27;;
36001;SDS011;22070;50.922;5.430;2023-04-03T04:16:06;12.48;;;7.13;;
36001;SDS011;22070;50.922;5.430;2023-04-03T04:18:32;14.95;;;7.32;;
36001;SDS011;22070;50.922;5.430;2023-04-03T04:20:57;17.70;;;8.43;;
36001;SDS011;22070;50.922;5.430;2023-04-03T04:23:23;8.63;;;6.68;;
36001;SDS011;22070;50.922;5.430;2023-04-03T04:25:49;13.27;;;7.70;;
36001;SDS011;22070;50.922;5.430;2023-04-03T04:28:15;19.30;;;7.60;;
36001;SDS011;22070;50.922;5.430;2023-04-03T04:30:41;11.57;;;7.00;;
36001;SDS011;22070;50.922;5.430;2023-04-03T04:33:07;13.52;;;7.13;;
36001;SDS011;22070;50.922;5.430;2023-04-03T04:35:33;15.37;;;7.73;;
36001;SDS011;22070;50.922;5.430;2023-04-03T04:37:59;10.77;;;7.47;;
36001;SDS011;22070;50.922;5.430;2023-04-03T04:40:25;9.98;;;4.90;;
36001;SDS011;22070;50.922;5.430;2023-04-03T04:42:51;10.98;;;7.38;;
36001;SDS011;22070;50.922;5.430;2023-04-03T04:45:17;11.00;;;7.35;;
36001;SDS011;22070;50.922;5.430;2023-04-03T04:47:43;10.65;;;7.50;;
36001;SDS011;22070;50.922;5.430;2023-04-03T04:50:09;14.73;;;8.07;;
36001;SDS011;22070;50.922;5.430;2023-04-03T04:55:02;17.10;;;8.17;;
36001;SDS011;22070;50.922;5.430;2023-04-03T04:57:27;10.90;;;7.60;;
36001;SDS011;22070;50.922;5.430;2023-04-03T04:59:53;11.57;;;8.20;;
36001;SDS011;22070;50.922;5.430;2023-04-03T05:02:19;13.43;;;8.32;;
36001;SDS011;22070;50.922;5.430;2023-04-03T05:04:44;14.80;;;8.60;;
36001;SDS011;22070;50.922;5.430;2023-04-03T05:07:10;13.70;;;9.07;;
36001;SDS011;22070;50.922;5.430;2023-04-03T05:09:36;16.67;;;9.87;;
36001;SDS011;22070;50.922;5.430;2023-04-03T05:12:01;16.70;;;10.87;;
36001;SDS011;22070;50.922;5.430;2023-04-03T05:14:28;16.80;;;10.18;;
36001;SDS011;22070;50.922;5.430;2023-04-03T05:16:54;18.63;;;10.43;;
36001;SDS011;22070;50.922;5.430;2023-04-03T05:19:22;19.17;;;9.97;;
36001;SDS011;22070;50.922;5.430;2023-04-03T05:21:48;15.65;;;10.70;;
36001;SDS011;22070;50.922;5.430;2023-04-03T05:24:14;20.10;;;11.35;;
36001;SDS011;22070;50.922;5.430;2023-04-03T05:29:06;15.13;;;10.05;;
36001;SDS011;22070;50.922;5.430;2023-04-03T05:31:32;13.25;;;7.93;;
36001;SDS011;22070;50.922;5.430;2023-04-03T05:33:58;20.53;;;11.27;;
36001;SDS011;22070;50.922;5.430;2023-04-03T05:36:23;23.80;;;12.33;;
36001;SDS011;22070;50.922;5.430;2023-04-03T05:38:50;22.92;;;12.00;;
36001;SDS011;22070;50.922;5.430;2023-04-03T05:41:16;20.23;;;12.23;;
36001;SDS011;22070;50.922;5.430;2023-04-03T05:43:42;18.57;;;11.33;;
36001;SDS011;22070;50.922;5.430;2023-04-03T05:46:11;16.23;;;10.85;;
36001;SDS011;22070;50.922;5.430;2023-04-03T05:48:37;21.20;;;11.18;;
36001;SDS011;22070;50.922;5.430;2023-04-03T05:51:03;25.75;;;11.98;;
36001;SDS011;22070;50.922;5.430;2023-04-03T05:53:30;21.17;;;10.98;;
36001;SDS011;22070;50.922;5.430;2023-04-03T05:55:58;19.17;;;11.40;;
36001;SDS011;22070;50.922;5.430;2023-04-03T05:58:23;18.08;;;10.38;;
36001;SDS011;22070;50.922;5.430;2023-04-03T06:00:49;15.75;;;9.68;;
36001;SDS011;22070;50.922;5.430;2023-04-03T06:03:15;16.83;;;9.20;;
36001;SDS011;22070;50.922;5.430;2023-04-03T06:05:41;15.55;;;8.98;;
36001;SDS011;22070;50.922;5.430;2023-04-03T06:08:07;15.97;;;9.53;;
36001;SDS011;22070;50.922;5.430;2023-04-03T06:10:34;18.90;;;8.68;;
36001;SDS011;22070;50.922;5.430;2023-04-03T06:13:00;16.67;;;9.32;;
36001;SDS011;22070;50.922;5.430;2023-04-03T06:15:26;17.48;;;8.60;;
36001;SDS011;22070;50.922;5.430;2023-04-03T06:17:52;15.63;;;8.47;;
36001;SDS011;22070;50.922;5.430;2023-04-03T06:20:17;12.87;;;7.93;;
36001;SDS011;22070;50.922;5.430;2023-04-03T06:22:43;16.13;;;8.32;;
36001;SDS011;22070;50.922;5.430;2023-04-03T06:25:09;13.77;;;7.72;;
36001;SDS011;22070;50.922;5.430;2023-04-03T06:27:35;13.15;;;7.40;;
36001;SDS011;22070;50.922;5.430;2023-04-03T06:30:00;16.60;;;7.43;;
36001;SDS011;22070;50.922;5.430;2023-04-03T06:32:26;12.50;;;6.30;;
36001;SDS011;22070;50.922;5.430;2023-04-03T06:34:52;17.52;;;6.85;;
36001;SDS011;22070;50.922;5.430;2023-04-03T06:37:19;10.68;;;6.40;;
36001;SDS011;22070;50.922;5.430;2023-04-03T06:39:47;9.43;;;6.25;;
36001;SDS011;22070;50.922;5.430;2023-04-03T06:42:13;12.18;;;6.07;;
36001;SDS011;22070;50.922;5.430;2023-04-03T06:44:39;9.90;;;4.97;;
36001;SDS011;22070;50.922;5.430;2023-04-03T06:47:04;9.77;;;5.50;;
36001;SDS011;22070;50.922;5.430;2023-04-03T06:49:30;18.77;;;5.23;;
36001;SDS011;22070;50.922;5.430;2023-04-03T06:51:57;6.10;;;3.80;;
36001;SDS011;22070;50.922;5.430;2023-04-03T06:54:22;8.03;;;4.53;;
36001;SDS011;22070;50.922;5.430;2023-04-03T06:56:48;7.15;;;4.28;;
36001;SDS011;22070;50.922;5.430;2023-04-03T06:59:15;9.80;;;4.55;;
36001;SDS011;22070;50.922;5.430;2023-04-03T07:01:42;7.40;;;4.50;;
36001;SDS011;22070;50.922;5.430;2023-04-03T07:04:07;13.87;;;4.43;;
36001;SDS011;22070;50.922;5.430;2023-04-03T07:06:33;7.97;;;4.43;;
36001;SDS011;22070;50.922;5.430;2023-04-03T07:09:00;9.27;;;4.82;;
36001;SDS011;22070;50.922;5.430;2023-04-03T07:11:26;15.40;;;4.63;;
36001;SDS011;22070;50.922;5.430;2023-04-03T07:13:52;15.30;;;4.85;;
36001;SDS011;22070;50.922;5.430;2023-04-03T07:16:18;9.70;;;3.58;;
36001;SDS011;22070;50.922;5.430;2023-04-03T07:18:44;8.80;;;4.22;;
36001;SDS011;22070;50.922;5.430;2023-04-03T07:21:10;7.63;;;3.67;;
36001;SDS011;22070;50.922;5.430;2023-04-03T07:23:36;13.65;;;4.43;;
36001;SDS011;22070;50.922;5.430;2023-04-03T07:26:02;6.88;;;3.70;;
36001;SDS011;22070;50.922;5.430;2023-04-03T07:28:28;7.60;;;3.60;;
36001;SDS011;22070;50.922;5.430;2023-04-03T07:30:59;7.57;;;3.83;;
36001;SDS011;22070;50.922;5.430;2023-04-03T07:33:31;7.72;;;3.50;;
36001;SDS011;22070;50.922;5.430;2023-04-03T07:35:57;6.65;;;2.53;;
36001;SDS011;22070;50.922;5.430;2023-04-03T07:38:23;7.73;;;3.27;;
36001;SDS011;22070;50.922;5.430;2023-04-03T07:40:49;8.38;;;3.35;;
36001;SDS011;22070;50.922;5.430;2023-04-03T07:43:17;6.68;;;3.45;;
36001;SDS011;22070;50.922;5.430;2023-04-03T07:45:44;9.15;;;3.33;;
36001;SDS011;22070;50.922;5.430;2023-04-03T07:48:10;6.18;;;3.50;;
36001;SDS011;22070;50.922;5.430;2023-04-03T07:50:37;6.47;;;3.08;;
36001;SDS011;22070;50.922;5.430;2023-04-03T07:53:05;6.72;;;3.38;;
36001;SDS011;22070;50.922;5.430;2023-04-03T07:55:31;8.63;;;2.85;;
36001;SDS011;22070;50.922;5.430;2023-04-03T07:57:57;6.18;;;3.20;;
36001;SDS011;22070;50.922;5.430;2023-04-03T08:00:23;9.57;;;3.10;;
36001;SDS011;22070;50.922;5.430;2023-04-03T08:02:49;10.13;;;3.13;;
36001;SDS011;22070;50.922;5.430;2023-04-03T08:05:17;5.75;;;2.80;;
36001;SDS011;22070;50.922;5.430;2023-04-03T08:07:43;5.60;;;2.72;;
36001;SDS011;22070;50.922;5.430;2023-04-03T08:10:09;6.13;;;2.65;;
36001;SDS011;22070;50.922;5.430;2023-04-03T08:12:35;4.93;;;2.43;;
36001;SDS011;22070;50.922;5.430;2023-04-03T08:15:02;5.57;;;2.80;;
36001;SDS011;22070;50.922;5.430;2023-04-03T08:17:28;7.05;;;2.63;;
36001;SDS011;22070;50.922;5.430;2023-04-03T08:19:54;5.85;;;2.45;;
36001;SDS011;22070;50.922;5.430;2023-04-03T08:22:20;7.82;;;2.80;;
36001;SDS011;22070;50.922;5.430;2023-04-03T08:24:45;6.00;;;2.80;;
36001;SDS011;22070;50.922;5.430;2023-04-03T08:27:11;3.30;;;2.22;;
36001;SDS011;22070;50.922;5.430;2023-04-03T08:29:37;5.10;;;2.40;;
36001;SDS011;22070;50.922;5.430;2023-04-03T08:32:03;4.07;;;2.20;;
36001;SDS011;22070;50.922;5.430;2023-04-03T08:34:30;7.32;;;2.80;;
36001;SDS011;22070;50.922;5.430;2023-04-03T08:36:59;6.50;;;2.63;;
36001;SDS011;22070;50.922;5.430;2023-04-03T08:39:25;9.07;;;2.43;;
36001;SDS011;22070;50.922;5.430;2023-04-03T08:41:52;4.97;;;2.10;;
36001;SDS011;22070;50.922;5.430;2023-04-03T08:47:21;5.07;;;2.42;;
36001;SDS011;22070;50.922;5.430;2023-04-03T08:50:02;5.90;;;2.95;;
36001;SDS011;22070;50.922;5.430;2023-04-03T08:52:41;6.03;;;2.58;;
36001;SDS011;22070;50.922;5.430;2023-04-03T08:55:25;7.38;;;2.03;;
36001;SDS011;22070;50.922;5.430;2023-04-03T08:57:53;5.47;;;2.17;;
36001;SDS011;22070;50.922;5.430;2023-04-03T09:00:27;8.15;;;2.30;;
36001;SDS011;22070;50.922;5.430;2023-04-03T09:02:57;3.35;;;2.13;;
36001;SDS011;22070;50.922;5.430;2023-04-03T09:05:35;5.22;;;1.90;;
36001;SDS011;22070;50.922;5.430;2023-04-03T09:11:16;6.78;;;1.55;;
36001;SDS011;22070;50.922;5.430;2023-04-03T09:16:55;4.75;;;1.63;;
36001;SDS011;22070;50.922;5.430;2023-04-03T09:22:18;4.47;;;1.75;;
36001;SDS011;22070;50.922;5.430;2023-04-03T09:24:45;3.30;;;1.88;;
36001;SDS011;22070;50.922;5.430;2023-04-03T09:27:15;5.75;;;1.80;;
36001;SDS011;22070;50.922;5.430;2023-04-03T09:29:43;6.07;;;2.03;;
36001;SDS011;22070;50.922;5.430;2023-04-03T09:32:32;4.95;;;1.90;;
36001;SDS011;22070;50.922;5.430;2023-04-03T09:35:03;5.78;;;2.20;;
36001;SDS011;22070;50.922;5.430;2023-04-03T09:37:42;3.53;;;2.15;;
36001;SDS011;22070;50.922;5.430;2023-04-03T09:40:43;5.93;;;2.03;;
36001;SDS011;22070;50.922;5.430;2023-04-03T09:45:52;5.38;;;1.38;;
36001;SDS011;22070;50.922;5.430;2023-04-03T09:48:19;5.72;;;1.42;;
36001;SDS011;22070;50.922;5.430;2023-04-03T09:59:05;4.45;;;1.50;;
36001;SDS011;22070;50.922;5.430;2023-04-03T10:01:35;4.07;;;1.63;;
36001;SDS011;22070;50.922;5.430;2023-04-03T10:04:07;5.57;;;1.35;;
36001;SDS011;22070;50.922;5.430;2023-04-03T10:06:35;6.78;;;1.77;;
36001;SDS011;22070;50.922;5.430;2023-04-03T10:09:10;4.95;;;1.25;;
36001;SDS011;22070;50.922;5.430;2023-04-03T10:14:23;3.67;;;0.88;;
36001;SDS011;22070;50.922;5.430;2023-04-03T10:16:58;6.13;;;1.05;;
36001;SDS011;22070;50.922;5.430;2023-04-03T10:19:36;1.98;;;0.70;;
36001;SDS011;22070;50.922;5.430;2023-04-03T10:27:49;1.58;;;0.70;;
36001;SDS011;22070;50.922;5.430;2023-04-03T10:44:49;1.95;;;0.60;;
36001;SDS011;22070;50.922;5.430;2023-04-03T10:58:21;2.50;;;0.57;;
36001;SDS011;22070;50.922;5.430;2023-04-03T11:00:54;1.15;;;0.60;;
36001;SDS011;22070;50.922;5.430;2023-04-03T11:03:45;0.52;;;0.50;;
36001;SDS011;22070;50.922;5.430;2023-04-03T11:06:15;1.38;;;0.80;;
36001;SDS011;22070;50.922;5.430;2023-04-03T11:09:02;2.97;;;0.80;;
36001;SDS011;22070;50.922;5.430;2023-04-03T11:11:36;2.22;;;0.90;;
36001;SDS011;22070;50.922;5.430;2023-04-03T11:22:47;1.33;;;0.70;;
36001;SDS011;22070;50.922;5.430;2023-04-03T11:25:23;3.00;;;1.05;;
36001;SDS011;22070;50.922;5.430;2023-04-03T11:27:55;3.33;;;0.82;;
36001;SDS011;22070;50.922;5.430;2023-04-03T11:35:53;1.65;;;0.80;;
36001;SDS011;22070;50.922;5.430;2023-04-03T11:38:42;1.45;;;0.80;;
36001;SDS011;22070;50.922;5.430;2023-04-03T11:41:10;6.10;;;1.02;;
36001;SDS011;22070;50.922;5.430;2023-04-03T11:46:20;4.03;;;1.13;;
36001;SDS011;22070;50.922;5.430;2023-04-03T11:48:47;4.18;;;1.10;;
36001;SDS011;22070;50.922;5.430;2023-04-03T11:53:43;3.47;;;1.15;;
36001;SDS011;22070;50.922;5.430;2023-04-03T12:04:24;4.35;;;0.88;;
36001;SDS011;22070;50.922;5.430;2023-04-03T12:06:53;2.00;;;1.00;;
36001;SDS011;22070;50.922;5.430;2023-04-03T12:14:55;6.93;;;1.23;;
36001;SDS011;22070;50.922;5.430;2023-04-03T12:17:36;5.50;;;1.20;;
36001;SDS011;22070;50.922;5.430;2023-04-03T12:20:14;5.35;;;1.27;;
36001;SDS011;22070;50.922;5.430;2023-04-03T12:23:30;2.58;;;0.90;;
36001;SDS011;22070;50.922;5.430;2023-04-03T12:26:20;3.03;;;1.00;;
36001;SDS011;22070;50.922;5.430;2023-04-03T12:28:50;7.20;;;1.20;;
36001;SDS011;22070;50.922;5.430;2023-04-03T12:31:18;3.20;;;1.05;;
36001;SDS011;22070;50.922;5.430;2023-04-03T12:33:59;5.07;;;1.30;;
36001;SDS011;22070;50.922;5.430;2023-04-03T12:36:52;4.90;;;1.27;;
36001;SDS011;22070;50.922;5.430;2023-04-03T12:39:44;4.32;;;1.40;;
36001;SDS011;22070;50.922;5.430;2023-04-03T12:42:23;6.63;;;1.83;;
36001;SDS011;22070;50.922;5.430;2023-04-03T12:47:49;3.90;;;1.45;;
36001;SDS011;22070;50.922;5.430;2023-04-03T12:50:21;4.50;;;1.10;;
36001;SDS011;22070;50.922;5.430;2023-04-03T12:53:32;2.58;;;1.20;;
36001;SDS011;22070;50.922;5.430;2023-04-03T12:55:56;2.28;;;1.25;;
36001;SDS011;22070;50.922;5.430;2023-04-03T12:58:42;2.17;;;1.27;;
36001;SDS011;22070;50.922;5.430;2023-04-03T13:03:44;4.82;;;1.60;;
36001;SDS011;22070;50.922;5.430;2023-04-03T13:06:19;3.05;;;1.38;;
36001;SDS011;22070;50.922;5.430;2023-04-03T13:08:58;3.92;;;1.30;;
36001;SDS011;22070;50.922;5.430;2023-04-03T13:11:47;2.03;;;1.13;;
36001;SDS011;22070;50.922;5.430;2023-04-03T13:14:25;4.50;;;1.50;;
36001;SDS011;22070;50.922;5.430;2023-04-03T13:17:03;3.60;;;1.98;;
36001;SDS011;22070;50.922;5.430;2023-04-03T13:19:35;4.25;;;1.30;;
36001;SDS011;22070;50.922;5.430;2023-04-03T13:22:02;2.60;;;1.52;;
36001;SDS011;22070;50.922;5.430;2023-04-03T13:24:31;3.70;;;1.40;;
36001;SDS011;22070;50.922;5.430;2023-04-03T13:27:01;3.88;;;1.50;;
36001;SDS011;22070;50.922;5.430;2023-04-03T13:31:58;5.20;;;1.50;;
36001;SDS011;22070;50.922;5.430;2023-04-03T13:34:26;3.20;;;1.40;;
36001;SDS011;22070;50.922;5.430;2023-04-03T13:39:25;5.43;;;1.40;;
36001;SDS011;22070;50.922;5.430;2023-04-03T13:41:54;3.60;;;1.45;;
36001;SDS011;22070;50.922;5.430;2023-04-03T13:44:28;3.15;;;1.50;;
36001;SDS011;22070;50.922;5.430;2023-04-03T13:46:58;7.30;;;1.50;;
36001;SDS011;22070;50.922;5.430;2023-04-03T13:49:36;4.22;;;1.40;;
36001;SDS011;22070;50.922;5.430;2023-04-03T13:54:46;8.32;;;1.30;;
36001;SDS011;22070;50.922;5.430;2023-04-03T13:57:16;7.15;;;1.40;;
36001;SDS011;22070;50.922;5.430;2023-04-03T13:59:42;5.45;;;1.15;;
36001;SDS011;22070;50.922;5.430;2023-04-03T14:07:05;3.53;;;1.17;;
36001;SDS011;22070;50.922;5.430;2023-04-03T14:09:31;2.60;;;1.20;;
36001;SDS011;22070;50.922;5.430;2023-04-03T14:11:59;1.80;;;1.00;;
36001;SDS011;22070;50.922;5.430;2023-04-03T14:14:30;3.92;;;1.40;;
36001;SDS011;22070;50.922;5.430;2023-04-03T14:16:58;1.67;;;1.20;;
36001;SDS011;22070;50.922;5.430;2023-04-03T14:19:27;3.78;;;1.38;;
36001;SDS011;22070;50.922;5.430;2023-04-03T14:21:55;2.83;;;1.42;;
36001;SDS011;22070;50.922;5.430;2023-04-03T14:24:22;4.95;;;1.20;;
36001;SDS011;22070;50.922;5.430;2023-04-03T14:26:49;5.90;;;1.38;;
36001;SDS011;22070;50.922;5.430;2023-04-03T14:29:17;3.78;;;1.20;;
36001;SDS011;22070;50.922;5.430;2023-04-03T14:31:44;2.55;;;1.33;;
36001;SDS011;22070;50.922;5.430;2023-04-03T14:34:11;4.57;;;1.20;;
36001;SDS011;22070;50.922;5.430;2023-04-03T14:36:38;4.25;;;1.38;;
36001;SDS011;22070;50.922;5.430;2023-04-03T14:39:05;1.42;;;1.20;;
36001;SDS011;22070;50.922;5.430;2023-04-03T14:41:32;4.70;;;1.55;;
36001;SDS011;22070;50.922;5.430;2023-04-03T14:43:58;2.07;;;1.20;;
36001;SDS011;22070;50.922;5.430;2023-04-03T14:46:29;1.65;;;1.27;;
36001;SDS011;22070;50.922;5.430;2023-04-03T14:49:02;2.55;;;1.10;;
36001;SDS011;22070;50.922;5.430;2023-04-03T14:51:32;4.43;;;1.20;;
36001;SDS011;22070;50.922;5.430;2023-04-03T14:53:58;9.95;;;1.90;;
36001;SDS011;22070;50.922;5.430;2023-04-03T14:56:25;6.77;;;2.77;;
36001;SDS011;22070;50.922;5.430;2023-04-03T14:58:57;2.42;;;1.35;;
36001;SDS011;22070;50.922;5.430;2023-04-03T15:01:24;3.25;;;1.40;;
36001;SDS011;22070;50.922;5.430;2023-04-03T15:03:50;1.80;;;0.90;;
36001;SDS011;22070;50.922;5.430;2023-04-03T15:06:16;1.92;;;1.27;;
36001;SDS011;22070;50.922;5.430;2023-04-03T15:08:42;3.63;;;1.15;;
36001;SDS011;22070;50.922;5.430;2023-04-03T15:11:10;2.13;;;1.20;;
36001;SDS011;22070;50.922;5.430;2023-04-03T15:16:02;2.55;;;1.10;;
36001;SDS011;22070;50.922;5.430;2023-04-03T15:18:30;3.17;;;1.20;;
36001;SDS011;22070;50.922;5.430;2023-04-03T15:21:02;2.88;;;1.20;;
36001;SDS011;22070;50.922;5.430;2023-04-03T15:23:28;56.85;;;4.15;;
36001;SDS011;22070;50.922;5.430;2023-04-03T15:25:55;4.70;;;1.10;;
36001;SDS011;22070;50.922;5.430;2023-04-03T15:33:24;1.77;;;1.23;;
36001;SDS011;22070;50.922;5.430;2023-04-03T15:35:50;2.25;;;1.05;;
36001;SDS011;22070;50.922;5.430;2023-04-03T15:38:16;2.43;;;1.13;;
36001;SDS011;22070;50.922;5.430;2023-04-03T15:40:41;3.27;;;1.10;;
36001;SDS011;22070;50.922;5.430;2023-04-03T15:43:08;5.03;;;1.25;;
36001;SDS011;22070;50.922;5.430;2023-04-03T15:45:35;10.05;;;1.70;;
36001;SDS011;22070;50.922;5.430;2023-04-03T15:48:02;1.80;;;1.20;;
36001;SDS011;22070;50.922;5.430;2023-04-03T15:50:32;3.10;;;1.20;;
36001;SDS011;22070;50.922;5.430;2023-04-03T15:52:59;3.65;;;1.17;;
36001;SDS011;22070;50.922;5.430;2023-04-03T15:55:26;2.55;;;1.35;;
36001;SDS011;22070;50.922;5.430;2023-04-03T15:57:53;2.10;;;1.08;;
36001;SDS011;22070;50.922;5.430;2023-04-03T16:00:20;3.13;;;1.10;;
36001;SDS011;22070;50.922;5.430;2023-04-03T16:02:46;2.05;;;1.20;;
36001;SDS011;22070;50.922;5.430;2023-04-03T16:07:40;2.63;;;1.27;;
36001;SDS011;22070;50.922;5.430;2023-04-03T16:10:07;3.55;;;1.35;;
36001;SDS011;22070;50.922;5.430;2023-04-03T16:12:34;8.73;;;5.65;;
36001;SDS011;22070;50.922;5.430;2023-04-03T16:15:00;2.17;;;1.00;;
36001;SDS011;22070;50.922;5.430;2023-04-03T16:17:27;3.05;;;1.40;;
36001;SDS011;22070;50.922;5.430;2023-04-03T16:19:56;0.85;;;0.80;;
36001;SDS011;22070;50.922;5.430;2023-04-03T16:22:25;2.17;;;1.10;;
36001;SDS011;22070;50.922;5.430;2023-04-03T16:24:52;2.30;;;1.20;;
36001;SDS011;22070;50.922;5.430;2023-04-03T16:27:18;1.63;;;1.08;;
36001;SDS011;22070;50.922;5.430;2023-04-03T16:29:43;5.30;;;1.30;;
36001;SDS011;22070;50.922;5.430;2023-04-03T16:32:09;2.30;;;1.10;;
36001;SDS011;22070;50.922;5.430;2023-04-03T16:34:35;2.23;;;1.30;;
36001;SDS011;22070;50.922;5.430;2023-04-03T16:37:01;9.23;;;1.50;;
36001;SDS011;22070;50.922;5.430;2023-04-03T16:39:26;9.83;;;1.60;;
36001;SDS011;22070;50.922;5.430;2023-04-03T16:41:52;2.87;;;1.23;;
36001;SDS011;22070;50.922;5.430;2023-04-03T16:44:18;2.27;;;0.90;;
36001;SDS011;22070;50.922;5.430;2023-04-03T16:46:43;5.47;;;1.33;;
36001;SDS011;22070;50.922;5.430;2023-04-03T16:49:09;3.27;;;1.60;;
36001;SDS011;22070;50.922;5.430;2023-04-03T16:51:35;4.00;;;1.00;;
36001;SDS011;22070;50.922;5.430;2023-04-03T16:54:01;2.97;;;1.20;;
36001;SDS011;22070;50.922;5.430;2023-04-03T16:56:26;4.23;;;1.40;;
36001;SDS011;22070;50.922;5.430;2023-04-03T16:58:52;2.03;;;1.17;;
36001;SDS011;22070;50.922;5.430;2023-04-03T17:01:19;2.65;;;1.40;;